| time (UTC) | temp F | wind direction | speed knots | gust knots | rain 1hr in | rain 24hr in | rain mn in | humidity % | barometer mb |
| 20260508141109 | 81 | 270 | 0.9 | 0.9 | 0.00 | 0.00 | 0.00 | 39 | 1017.3 |
| 20260508140109 | 81 | 135 | 0.9 | 1.7 | 0.00 | 0.00 | 0.00 | 40 | 1017.2 |
| 20260508135109 | 80 | 180 | 0.9 | 1.7 | 0.00 | 0.00 | 0.00 | 40 | 1017.2 |
| 20260508134109 | 81 | 180 | 0.9 | 0.9 | 0.00 | 0.00 | 0.00 | 40 | 1017.2 |
| 20260508133109 | 81 | 112 | 0.9 | 0.9 | 0.00 | 0.00 | 0.00 | 41 | 1017.2 |
| 20260508132109 | 81 | 90 | 0.0 | 0.0 | 0.00 | 0.00 | 0.00 | 40 | 1017.2 |
| 20260508131109 | 81 | 225 | 0.9 | 0.9 | 0.00 | 0.00 | 0.00 | 41 | 1017.2 |
| 20260508130109 | 81 | 225 | 0.9 | 0.9 | 0.00 | 0.00 | 0.00 | 42 | 1017.4 |
| 20260508125109 | 80 | 180 | 0.0 | 0.0 | 0.00 | 0.00 | 0.00 | 42 | 1017.3 |
| 20260508124109 | 80 | 270 | 0.9 | 0.9 | 0.00 | 0.00 | 0.00 | 44 | 1017.3 |
| 20260508123109 | 79 | 90 | 0.9 | 1.7 | 0.00 | 0.00 | 0.00 | 46 | 1017.3 |
| 20260508122109 | 80 | 90 | 0.9 | 0.9 | 0.00 | 0.00 | 0.00 | 44 | 1017.5 |
| 20260508121109 | 80 | 67 | 0.9 | 0.9 | 0.00 | 0.00 | 0.00 | 41 | 1017.5 |
| 20260508120109 | 81 | 90 | 0.9 | 1.7 | 0.00 | 0.00 | 0.00 | 40 | 1017.6 |
| 20260508115109 | 81 | 67 | 0.0 | 0.9 | 0.00 | 0.00 | 0.00 | 41 | 1017.7 |
| 20260508114109 | 80 | 90 | 2.6 | 2.6 | 0.00 | 0.00 | 0.00 | 42 | 1017.8 |
| 20260508113109 | 80 | 90 | 1.7 | 1.7 | 0.00 | 0.00 | 0.00 | 43 | 1017.8 |
| 20260508112109 | 82 | 45 | 0.9 | 1.7 | 0.00 | 0.00 | 0.00 | 45 | 1017.9 |
| 20260508111109 | 81 | 90 | 0.9 | 0.9 | 0.00 | 0.00 | 0.00 | 40 | 1017.8 |
| 20260508110109 | 81 | 45 | 0.9 | 1.7 | 0.00 | 0.00 | 0.00 | 41 | 1017.9 |
| 20260508105109 | 81 | 90 | 0.9 | 0.9 | 0.00 | 0.00 | 0.00 | 39 | 1018.0 |
| 20260508104109 | 83 | 45 | 1.7 | 1.7 | 0.00 | 0.00 | 0.00 | 38 | 1018.0 |
| 20260508103109 | 83 | 90 | 0.9 | 0.9 | 0.00 | 0.00 | 0.00 | 38 | 1018.0 |
| 20260508102109 | 82 | 112 | 0.0 | 0.9 | 0.00 | 0.00 | 0.00 | 38 | 1018.0 |
| 20260508101109 | 82 | 90 | 0.9 | 0.9 | 0.00 | 0.00 | 0.00 | 36 | 1018.2 |
| 20260508100109 | 82 | 90 | 0.9 | 0.9 | 0.00 | 0.00 | 0.00 | 36 | 1018.3 |
| 20260508095109 | 82 | 45 | 0.0 | 0.0 | 0.00 | 0.00 | 0.00 | 34 | 1018.3 |
| 20260508094109 | 82 | 90 | 1.7 | 3.5 | 0.00 | 0.00 | 0.00 | 33 | 1018.4 |
| 20260508093109 | 81 | 67 | 0.9 | 2.6 | 0.00 | 0.00 | 0.00 | 32 | 1018.5 |
| 20260508092109 | 82 | 90 | 1.7 | 1.7 | 0.00 | 0.00 | 0.00 | 34 | 1018.6 |
| 20260508091109 | 83 | 67 | 0.9 | 0.9 | 0.00 | 0.00 | 0.00 | 33 | 1018.7 |
| 20260508090109 | 83 | 135 | 0.9 | 0.9 | 0.00 | 0.00 | 0.00 | 30 | 1018.7 |
| 20260508085109 | 83 | 0 | 0.9 | 2.6 | 0.00 | 0.00 | 0.00 | 31 | 1018.8 |
| 20260508084109 | 83 | 90 | 0.9 | 0.9 | 0.00 | 0.00 | 0.00 | 30 | 1019.0 |
| 20260508083109 | 83 | 315 | 0.9 | 0.9 | 0.00 | 0.00 | 0.00 | 30 | 1018.9 |
| 20260508082109 | 82 | 45 | 0.9 | 0.9 | 0.00 | 0.00 | 0.00 | 29 | 1018.9 |
| 20260508081109 | 81 | 0 | 0.9 | 0.9 | 0.00 | 0.00 | 0.00 | 31 | 1018.9 |
| 20260508080109 | 81 | 45 | 1.7 | 1.7 | 0.00 | 0.00 | 0.00 | 29 | 1018.9 |
| 20260508075109 | 81 | 45 | 0.9 | 0.9 | 0.00 | 0.00 | 0.00 | 29 | 1019.0 |
| 20260508074109 | 81 | 112 | 1.7 | 4.3 | 0.00 | 0.00 | 0.00 | 30 | 1019.0 |
| 20260508073109 | 81 | 90 | 0.9 | 1.7 | 0.00 | 0.00 | 0.00 | 29 | 1019.1 |
| 20260508072109 | 81 | 45 | 2.6 | 5.2 | 0.00 | 0.00 | 0.00 | 29 | 1019.1 |
| 20260508071109 | 81 | 45 | 0.9 | 2.6 | 0.00 | 0.00 | 0.00 | 30 | 1019.1 |
| 20260508070109 | 81 | 45 | 0.9 | 1.7 | 0.00 | 0.00 | 0.00 | 29 | 1019.0 |
| 20260508065109 | 82 | 45 | 1.7 | 1.7 | 0.00 | 0.00 | 0.00 | 28 | 1019.1 |
| 20260508064108 | 83 | 22 | 0.0 | 0.0 | 0.00 | 0.00 | 0.00 | 27 | 1019.1 |
| 20260508063108 | 83 | 270 | 0.0 | 0.0 | 0.00 | 0.00 | 0.00 | 27 | 1019.2 |
| 20260508062108 | 82 | 22 | 0.9 | 0.9 | 0.00 | 0.00 | 0.00 | 27 | 1019.2 |
| 20260508061108 | 82 | 0 | 0.0 | 0.0 | 0.00 | 0.00 | 0.00 | 28 | 1019.2 |
| 20260508060108 | 82 | 0 | 0.0 | 0.0 | 0.00 | 0.00 | 0.00 | 29 | 1019.3 |
| 20260508055109 | 81 | 270 | 0.0 | 0.0 | 0.00 | 0.00 | 0.00 | 30 | 1019.2 |
| 20260508054108 | 80 | 0 | 0.0 | 0.0 | 0.00 | 0.00 | 0.00 | 32 | 1019.2 |
| 20260508053108 | 80 | 45 | 0.0 | 0.0 | 0.00 | 0.00 | 0.00 | 32 | 1019.0 |
| 20260508052108 | 79 | 315 | 0.0 | 0.0 | 0.00 | 0.00 | 0.00 | 33 | 1019.1 |
| 20260508051108 | 78 | 157 | 0.0 | 0.0 | 0.00 | 0.00 | 0.00 | 33 | 1019.0 |
| 20260508050108 | 79 | 315 | 0.0 | 0.0 | 0.00 | 0.00 | 0.00 | 33 | 1019.0 |
| 20260508045108 | 79 | 270 | 0.0 | 0.0 | 0.00 | 0.00 | 0.00 | 35 | 1019.0 |
| 20260508044108 | 77 | 315 | 0.0 | 0.0 | 0.00 | 0.00 | 0.00 | 35 | 1019.1 |
| 20260508043108 | 76 | 315 | 0.0 | 0.0 | 0.00 | 0.00 | 0.00 | 37 | 1019.1 |
| 20260508042108 | 74 | 45 | 0.0 | 0.0 | 0.00 | 0.00 | 0.00 | 39 | 1019.1 |
| 20260508041108 | 73 | 22 | 0.0 | 0.0 | 0.00 | 0.00 | 0.00 | 40 | 1019.0 |
| 20260508040108 | 72 | 45 | 0.0 | 0.0 | 0.00 | 0.00 | 0.00 | 41 | 1018.9 |
| 20260508035108 | 71 | 315 | 0.0 | 0.0 | 0.00 | 0.00 | 0.00 | 42 | 1018.7 |
| 20260508034108 | 69 | 0 | 0.0 | 0.0 | 0.00 | 0.00 | 0.00 | 44 | 1018.7 |
| 20260508033108 | 66 | 315 | 0.0 | 0.0 | 0.00 | 0.00 | 0.00 | 46 | 1018.5 |
| 20260508032108 | 65 | 315 | 0.0 | 0.9 | 0.00 | 0.00 | 0.00 | 46 | 1018.4 |
| 20260508031108 | 64 | 0 | 0.0 | 0.0 | 0.00 | 0.00 | 0.00 | 46 | 1018.3 |
| 20260508030108 | 64 | 0 | 0.0 | 0.0 | 0.00 | 0.00 | 0.00 | 46 | 1018.1 |
| 20260508025108 | 64 | 45 | 0.0 | 0.0 | 0.00 | 0.00 | 0.00 | 46 | 1018.0 |
| 20260508024108 | 64 | 315 | 0.0 | 0.0 | 0.00 | 0.00 | 0.00 | 45 | 1017.9 |
| 20260508023108 | 65 | 45 | 0.0 | 0.0 | 0.00 | 0.00 | 0.00 | 45 | 1017.9 |
| 20260508022108 | 65 | 315 | 0.0 | 0.0 | 0.00 | 0.00 | 0.00 | 45 | 1017.7 |
| 20260508021108 | 65 | 0 | 0.0 | 0.0 | 0.00 | 0.00 | 0.00 | 45 | 1017.6 |
| 20260508020108 | 65 | 315 | 0.9 | 0.9 | 0.00 | 0.00 | 0.00 | 45 | 1017.7 |
| 20260508015108 | 65 | 292 | 0.0 | 0.9 | 0.00 | 0.00 | 0.00 | 44 | 1017.7 |
| 20260508014109 | 65 | 270 | 0.9 | 0.9 | 0.00 | 0.00 | 0.00 | 45 | 1017.7 |
| 20260508013108 | 65 | 315 | 0.0 | 0.0 | 0.00 | 0.00 | 0.00 | 45 | 1017.7 |
| 20260508012110 | 65 | 270 | 0.0 | 0.0 | 0.00 | 0.00 | 0.00 | 46 | 1017.7 |
| 20260508011108 | 65 | 270 | 0.0 | 0.0 | 0.00 | 0.00 | 0.00 | 47 | 1017.7 |
| 20260508010109 | 65 | 0 | 0.0 | 0.0 | 0.00 | 0.00 | 0.00 | 47 | 1017.7 |
| 20260508005108 | 65 | 315 | 0.0 | 0.0 | 0.00 | 0.00 | 0.00 | 47 | 1017.7 |
| 20260508004108 | 64 | 0 | 0.0 | 0.0 | 0.00 | 0.00 | 0.00 | 48 | 1017.7 |
| 20260508003109 | 64 | 45 | 0.0 | 0.0 | 0.00 | 0.00 | 0.00 | 48 | 1017.7 |
| 20260508002108 | 64 | 292 | 0.9 | 0.9 | 0.00 | 0.00 | 0.00 | 48 | 1017.8 |
| 20260508001109 | 64 | 315 | 1.7 | 1.7 | 0.00 | 0.00 | 0.00 | 47 | 1017.9 |
| 20260508000108 | 64 | 0 | 0.9 | 0.9 | 0.00 | 0.00 | 0.00 | 47 | 1018.1 |
| 20260507235108 | 65 | 315 | 0.9 | 0.9 | 0.00 | 0.00 | 0.00 | 47 | 1018.1 |
| 20260507234108 | 65 | 0 | 0.9 | 0.9 | 0.00 | 0.00 | 0.00 | 47 | 1018.0 |
| 20260507233108 | 65 | 0 | 0.9 | 2.6 | 0.00 | 0.00 | 0.00 | 48 | 1018.1 |
| 20260507232108 | 64 | 270 | 0.0 | 0.0 | 0.00 | 0.00 | 0.00 | 51 | 1018.2 |
| 20260507231108 | 64 | 0 | 0.0 | 0.9 | 0.00 | 0.00 | 0.00 | 56 | 1018.3 |
| 20260507230108 | 64 | 0 | 0.0 | 0.0 | 0.00 | 0.00 | 0.00 | 59 | 1018.3 |
| 20260507225108 | 64 | 270 | 0.0 | 0.0 | 0.00 | 0.00 | 0.00 | 61 | 1018.2 |
| 20260507224108 | 64 | 225 | 0.0 | 0.0 | 0.00 | 0.00 | 0.00 | 62 | 1018.3 |
| 20260507223108 | 64 | 45 | 0.9 | 1.7 | 0.00 | 0.00 | 0.00 | 63 | 1018.4 |
| 20260507222108 | 64 | 270 | 0.0 | 0.0 | 0.00 | 0.00 | 0.00 | 65 | 1018.5 |
| 20260507221108 | 64 | 45 | 0.0 | 0.9 | 0.00 | 0.00 | 0.00 | 67 | 1018.6 |
| 20260507220109 | 64 | 225 | 0.9 | 0.9 | 0.00 | 0.00 | 0.00 | 68 | 1018.8 |
| 20260507215108 | 64 | 270 | 0.0 | 0.0 | 0.00 | 0.00 | 0.00 | 69 | 1018.9 |
| 20260507214109 | 65 | 315 | 0.0 | 0.0 | 0.00 | 0.00 | 0.00 | 69 | 1019.1 |
| 20260507213110 | 65 | 225 | 1.7 | 1.7 | 0.00 | 0.00 | 0.00 | 70 | 1019.1 |
| 20260507212110 | 65 | 315 | 0.0 | 0.0 | 0.00 | 0.00 | 0.00 | 70 | 1019.1 |
| 20260507211109 | 65 | 315 | 0.0 | 0.9 | 0.00 | 0.00 | 0.00 | 70 | 1019.1 |
| 20260507210109 | 65 | 315 | 0.9 | 0.9 | 0.00 | 0.00 | 0.00 | 70 | 1019.2 |
| 20260507205111 | 65 | 315 | 0.0 | 0.0 | 0.00 | 0.00 | 0.00 | 69 | 1019.2 |
| 20260507204108 | 65 | 315 | 1.7 | 1.7 | 0.00 | 0.00 | 0.00 | 69 | 1019.2 |
| 20260507203109 | 65 | 270 | 0.0 | 0.0 | 0.00 | 0.00 | 0.00 | 68 | 1019.2 |
| 20260507202110 | 65 | 270 | 0.9 | 0.9 | 0.00 | 0.00 | 0.00 | 68 | 1019.3 |
| 20260507201108 | 65 | 315 | 1.7 | 1.7 | 0.00 | 0.00 | 0.00 | 67 | 1019.3 |
| 20260507200108 | 66 | 270 | 0.0 | 0.9 | 0.00 | 0.00 | 0.00 | 67 | 1019.3 |
| 20260507195109 | 66 | 0 | 0.0 | 0.0 | 0.00 | 0.00 | 0.00 | 66 | 1019.2 |
| 20260507194108 | 66 | 270 | 0.0 | 0.0 | 0.00 | 0.00 | 0.00 | 66 | 1019.2 |
| 20260507193108 | 66 | 315 | 0.9 | 0.9 | 0.00 | 0.00 | 0.00 | 66 | 1019.2 |
| 20260507192109 | 66 | 0 | 0.0 | 0.0 | 0.00 | 0.00 | 0.00 | 65 | 1019.1 |
| 20260507191109 | 66 | 270 | 0.9 | 0.9 | 0.00 | 0.00 | 0.00 | 65 | 1019.1 |
| 20260507190113 | 66 | 315 | 0.0 | 0.0 | 0.00 | 0.00 | 0.00 | 64 | 1019.0 |
| 20260507185112 | 67 | 315 | 0.0 | 0.0 | 0.00 | 0.00 | 0.00 | 63 | 1018.9 |
| 20260507184108 | 67 | 0 | 0.9 | 0.9 | 0.00 | 0.00 | 0.00 | 63 | 1018.8 |
| 20260507183109 | 67 | 315 | 0.0 | 0.0 | 0.00 | 0.00 | 0.00 | 62 | 1018.8 |
| 20260507182111 | 68 | 315 | 0.0 | 0.0 | 0.00 | 0.00 | 0.00 | 60 | 1018.8 |
| 20260507181109 | 68 | 337 | 0.0 | 0.0 | 0.00 | 0.00 | 0.00 | 60 | 1018.8 |
| 20260507180109 | 68 | 270 | 0.0 | 0.0 | 0.00 | 0.00 | 0.00 | 60 | 1018.8 |
| 20260507175108 | 68 | 0 | 0.0 | 0.0 | 0.00 | 0.00 | 0.00 | 61 | 1018.7 |
| 20260507174108 | 68 | 0 | 0.0 | 0.0 | 0.00 | 0.00 | 0.00 | 63 | 1018.6 |
| 20260507173108 | 69 | 0 | 0.0 | 0.0 | 0.00 | 0.00 | 0.00 | 63 | 1018.4 |
| 20260507172108 | 70 | 270 | 0.0 | 0.0 | 0.00 | 0.00 | 0.00 | 61 | 1018.4 |
| 20260507171108 | 69 | 270 | 0.0 | 0.0 | 0.00 | 0.00 | 0.00 | 60 | 1018.3 |
| 20260507170108 | 70 | 180 | 0.0 | 0.0 | 0.00 | 0.00 | 0.00 | 60 | 1018.4 |
| 20260507165108 | 70 | 270 | 0.0 | 0.0 | 0.00 | 0.00 | 0.00 | 59 | 1018.2 |
| 20260507164108 | 71 | 157 | 0.9 | 0.9 | 0.00 | 0.00 | 0.00 | 57 | 1018.2 |
| 20260507163108 | 72 | 180 | 0.0 | 0.9 | 0.00 | 0.00 | 0.00 | 54 | 1018.1 |
| 20260507162109 | 73 | 225 | 0.0 | 0.0 | 0.00 | 0.00 | 0.00 | 49 | 1018.0 |
| 20260507161108 | 74 | 180 | 0.0 | 0.0 | 0.00 | 0.00 | 0.00 | 48 | 1018.0 |
| 20260507160110 | 75 | 225 | 0.0 | 0.0 | 0.00 | 0.00 | 0.00 | 47 | 1017.9 |
| 20260507155108 | 75 | 270 | 0.0 | 0.0 | 0.00 | 0.00 | 0.00 | 47 | 1017.9 |
| 20260507154108 | 75 | 180 | 0.0 | 0.0 | 0.00 | 0.00 | 0.00 | 46 | 1017.9 |
| 20260507153108 | 75 | 180 | 0.0 | 0.0 | 0.00 | 0.00 | 0.00 | 48 | 1018.0 |
| 20260507152108 | 74 | 202 | 0.9 | 4.3 | 0.00 | 0.00 | 0.00 | 48 | 1018.0 |
| 20260507151108 | 74 | 225 | 0.9 | 0.9 | 0.00 | 0.00 | 0.00 | 48 | 1018.0 |
| 20260507150108 | 76 | 270 | 0.0 | 0.0 | 0.00 | 0.00 | 0.00 | 46 | 1018.0 |
| 20260507145108 | 75 | 135 | 0.0 | 0.0 | 0.00 | 0.00 | 0.00 | 47 | 1018.0 |
| 20260507144109 | 74 | 90 | 0.0 | 0.0 | 0.00 | 0.00 | 0.00 | 48 | 1018.1 |
| 20260507143108 | 74 | 270 | 0.0 | 0.0 | 0.00 | 0.00 | 0.00 | 47 | 1018.1 |
| 20260507142108 | 74 | 135 | 0.0 | 0.0 | 0.00 | 0.00 | 0.00 | 47 | 1018.2 |